Sligo Airport - TAF
(Terminal Area Forecast)

Issued at 05:36 UTC on Wed. 20-Jan-21

--- METARS(SA) ---

METAR EISG(SLIGO) 200530Z AUTO 33005KT 9999 FEW027 SCT037 04/02

Q0983 =

--- TAFS() ---

TAF EISG(SLIGO) 200500Z 2006/2015 VRB03KT 9999 FEW012 SCT025 PROB30

TEMPO 2012/2015 -SHRA BKN012 SCT018CB =

--- SIGMETS(WS) ---

IE - No VALID SIGMETS/Warnings FOR THIS AREA

--- SIGMETS Volcanic(WV) ---

IE - No VALID SIGMETS/Warnings FOR THIS AREA

--- SIGMETS(WS) ---

EGTT SIGMET 01 VALID 200200/200600 EGRR- EGTT

LONDON FIR SEV MTW FCST WI N5453 E00141 - N5112 W00124 - N5028

W00404 - N5455 W00353 - N5453 E00141 FL040/180 STNR NC=

EGTT SIGMET 02 VALID 200200/200600 EGRR- EGTT

LONDON FIR SEV TURB FCST SE OF LINE N5438 E00441 - N5433 E00118

- N4955 W00225 SFC/FL060 MOV ENE 25KT NC=

Sligo Airport - METARs

Latest METARs for Sligo and Donegal Airports - updated every 30 mins